sensor_id;sensor_type;location;lat;lon;timestamp;temperature;humidity
26278;DHT22;14000;52.056;8.510;2024-02-26T00:02:23;1.80;99.90
26278;DHT22;14000;52.056;8.510;2024-02-26T00:04:49;1.80;99.90
26278;DHT22;14000;52.056;8.510;2024-02-26T00:07:15;1.70;99.90
26278;DHT22;14000;52.056;8.510;2024-02-26T00:09:41;1.60;99.90
26278;DHT22;14000;52.056;8.510;2024-02-26T00:12:07;1.50;99.90
26278;DHT22;14000;52.056;8.510;2024-02-26T00:14:32;1.50;99.90
26278;DHT22;14000;52.056;8.510;2024-02-26T00:16:58;1.50;99.90
26278;DHT22;14000;52.056;8.510;2024-02-26T00:19:23;1.50;99.90
26278;DHT22;14000;52.056;8.510;2024-02-26T00:21:49;1.50;99.90
26278;DHT22;14000;52.056;8.510;2024-02-26T00:24:14;1.50;99.90
26278;DHT22;14000;52.056;8.510;2024-02-26T00:26:40;1.50;99.90
26278;DHT22;14000;52.056;8.510;2024-02-26T00:29:05;1.50;99.90
26278;DHT22;14000;52.056;8.510;2024-02-26T00:31:31;1.50;99.90
26278;DHT22;14000;52.056;8.510;2024-02-26T00:33:57;1.50;99.90
26278;DHT22;14000;52.056;8.510;2024-02-26T00:36:22;1.50;99.90
26278;DHT22;14000;52.056;8.510;2024-02-26T00:38:48;1.50;99.90
26278;DHT22;14000;52.056;8.510;2024-02-26T00:41:19;1.50;99.90
26278;DHT22;14000;52.056;8.510;2024-02-26T00:43:45;1.60;99.90
26278;DHT22;14000;52.056;8.510;2024-02-26T00:46:11;1.60;99.90
26278;DHT22;14000;52.056;8.510;2024-02-26T00:48:37;1.60;99.90
26278;DHT22;14000;52.056;8.510;2024-02-26T00:51:03;1.50;99.90
26278;DHT22;14000;52.056;8.510;2024-02-26T00:53:33;1.50;99.90
26278;DHT22;14000;52.056;8.510;2024-02-26T00:55:58;1.50;99.90
26278;DHT22;14000;52.056;8.510;2024-02-26T00:58:25;1.40;99.90
26278;DHT22;14000;52.056;8.510;2024-02-26T01:00:51;1.40;99.90
26278;DHT22;14000;52.056;8.510;2024-02-26T01:03:17;1.50;99.90
26278;DHT22;14000;52.056;8.510;2024-02-26T01:05:43;1.50;99.90
26278;DHT22;14000;52.056;8.510;2024-02-26T01:08:08;1.50;99.90
26278;DHT22;14000;52.056;8.510;2024-02-26T01:10:34;1.50;99.90
26278;DHT22;14000;52.056;8.510;2024-02-26T01:12:59;1.50;99.90
26278;DHT22;14000;52.056;8.510;2024-02-26T01:15:25;1.40;99.90
26278;DHT22;14000;52.056;8.510;2024-02-26T01:17:51;1.30;99.90
26278;DHT22;14000;52.056;8.510;2024-02-26T01:20:17;1.30;99.90
26278;DHT22;14000;52.056;8.510;2024-02-26T01:22:43;1.30;99.90
26278;DHT22;14000;52.056;8.510;2024-02-26T01:25:09;1.40;99.90
26278;DHT22;14000;52.056;8.510;2024-02-26T01:27:38;1.30;99.90
26278;DHT22;14000;52.056;8.510;2024-02-26T01:30:04;1.40;99.90
26278;DHT22;14000;52.056;8.510;2024-02-26T01:32:30;1.30;99.90
26278;DHT22;14000;52.056;8.510;2024-02-26T01:34:56;1.40;99.90
26278;DHT22;14000;52.056;8.510;2024-02-26T01:37:22;1.40;99.90
26278;DHT22;14000;52.056;8.510;2024-02-26T01:39:47;1.30;99.90
26278;DHT22;14000;52.056;8.510;2024-02-26T01:42:13;1.30;99.90
26278;DHT22;14000;52.056;8.510;2024-02-26T01:44:38;1.30;99.90
26278;DHT22;14000;52.056;8.510;2024-02-26T01:47:05;1.30;99.90
26278;DHT22;14000;52.056;8.510;2024-02-26T01:49:33;1.30;99.90
26278;DHT22;14000;52.056;8.510;2024-02-26T01:52:01;1.30;99.90
26278;DHT22;14000;52.056;8.510;2024-02-26T01:54:27;1.40;99.90
26278;DHT22;14000;52.056;8.510;2024-02-26T01:56:53;1.40;99.90
26278;DHT22;14000;52.056;8.510;2024-02-26T01:59:19;1.30;99.90
26278;DHT22;14000;52.056;8.510;2024-02-26T02:01:48;1.30;99.90
26278;DHT22;14000;52.056;8.510;2024-02-26T02:04:16;1.30;99.90
26278;DHT22;14000;52.056;8.510;2024-02-26T02:06:41;1.30;99.90
26278;DHT22;14000;52.056;8.510;2024-02-26T02:09:08;1.30;99.90
26278;DHT22;14000;52.056;8.510;2024-02-26T02:11:34;1.30;99.90
26278;DHT22;14000;52.056;8.510;2024-02-26T02:13:59;1.30;99.90
26278;DHT22;14000;52.056;8.510;2024-02-26T02:16:25;1.30;99.90
26278;DHT22;14000;52.056;8.510;2024-02-26T02:18:51;1.20;99.90
26278;DHT22;14000;52.056;8.510;2024-02-26T02:21:16;1.20;99.90
26278;DHT22;14000;52.056;8.510;2024-02-26T02:23:42;1.20;99.90
26278;DHT22;14000;52.056;8.510;2024-02-26T02:26:12;1.30;99.90
26278;DHT22;14000;52.056;8.510;2024-02-26T02:28:39;1.30;99.90
26278;DHT22;14000;52.056;8.510;2024-02-26T02:31:05;1.30;99.90
26278;DHT22;14000;52.056;8.510;2024-02-26T02:33:31;1.40;99.90
26278;DHT22;14000;52.056;8.510;2024-02-26T02:35:57;1.40;99.90
26278;DHT22;14000;52.056;8.510;2024-02-26T02:38:23;1.50;99.90
26278;DHT22;14000;52.056;8.510;2024-02-26T02:40:49;1.50;99.90
26278;DHT22;14000;52.056;8.510;2024-02-26T02:43:15;1.50;99.90
26278;DHT22;14000;52.056;8.510;2024-02-26T02:45:40;1.40;99.90
26278;DHT22;14000;52.056;8.510;2024-02-26T02:48:06;1.50;99.90
26278;DHT22;14000;52.056;8.510;2024-02-26T02:50:31;1.50;99.90
26278;DHT22;14000;52.056;8.510;2024-02-26T02:52:57;1.50;99.90
26278;DHT22;14000;52.056;8.510;2024-02-26T02:55:22;1.50;99.90
26278;DHT22;14000;52.056;8.510;2024-02-26T02:57:48;1.60;99.90
26278;DHT22;14000;52.056;8.510;2024-02-26T03:00:14;1.60;99.90
26278;DHT22;14000;52.056;8.510;2024-02-26T03:02:39;1.60;99.90
26278;DHT22;14000;52.056;8.510;2024-02-26T03:05:05;1.60;99.90
26278;DHT22;14000;52.056;8.510;2024-02-26T03:07:31;1.60;99.90
26278;DHT22;14000;52.056;8.510;2024-02-26T03:09:56;1.60;99.90
26278;DHT22;14000;52.056;8.510;2024-02-26T03:12:22;1.60;99.90
26278;DHT22;14000;52.056;8.510;2024-02-26T03:14:48;1.60;99.90
26278;DHT22;14000;52.056;8.510;2024-02-26T03:17:13;1.60;99.90
26278;DHT22;14000;52.056;8.510;2024-02-26T03:19:39;1.70;99.90
26278;DHT22;14000;52.056;8.510;2024-02-26T03:22:04;1.60;99.90
26278;DHT22;14000;52.056;8.510;2024-02-26T03:24:30;1.70;99.90
26278;DHT22;14000;52.056;8.510;2024-02-26T03:26:56;1.70;99.90
26278;DHT22;14000;52.056;8.510;2024-02-26T03:29:21;1.70;99.90
26278;DHT22;14000;52.056;8.510;2024-02-26T03:31:47;1.70;99.90
26278;DHT22;14000;52.056;8.510;2024-02-26T03:34:12;1.70;99.90
26278;DHT22;14000;52.056;8.510;2024-02-26T03:36:40;1.70;99.90
26278;DHT22;14000;52.056;8.510;2024-02-26T03:39:05;1.80;99.90
26278;DHT22;14000;52.056;8.510;2024-02-26T03:41:33;1.80;99.90
26278;DHT22;14000;52.056;8.510;2024-02-26T03:43:59;1.70;99.90
26278;DHT22;14000;52.056;8.510;2024-02-26T03:46:24;1.70;99.90
26278;DHT22;14000;52.056;8.510;2024-02-26T03:48:50;1.70;99.90
26278;DHT22;14000;52.056;8.510;2024-02-26T03:51:15;1.70;99.90
26278;DHT22;14000;52.056;8.510;2024-02-26T03:53:41;1.70;99.90
26278;DHT22;14000;52.056;8.510;2024-02-26T03:56:07;1.70;99.90
26278;DHT22;14000;52.056;8.510;2024-02-26T03:58:32;1.70;99.90
26278;DHT22;14000;52.056;8.510;2024-02-26T04:00:59;1.80;99.90
26278;DHT22;14000;52.056;8.510;2024-02-26T04:03:25;1.90;99.90
26278;DHT22;14000;52.056;8.510;2024-02-26T04:05:51;1.90;99.90
26278;DHT22;14000;52.056;8.510;2024-02-26T04:08:16;1.90;99.90
26278;DHT22;14000;52.056;8.510;2024-02-26T04:10:42;2.10;99.90
26278;DHT22;14000;52.056;8.510;2024-02-26T04:13:08;2.10;99.90
26278;DHT22;14000;52.056;8.510;2024-02-26T04:15:34;2.20;99.90
26278;DHT22;14000;52.056;8.510;2024-02-26T04:17:59;2.20;99.90
26278;DHT22;14000;52.056;8.510;2024-02-26T04:20:25;2.20;99.90
26278;DHT22;14000;52.056;8.510;2024-02-26T04:22:51;2.20;99.90
26278;DHT22;14000;52.056;8.510;2024-02-26T04:25:16;2.30;99.90
26278;DHT22;14000;52.056;8.510;2024-02-26T04:27:42;2.30;99.90
26278;DHT22;14000;52.056;8.510;2024-02-26T04:30:08;2.30;99.90
26278;DHT22;14000;52.056;8.510;2024-02-26T04:32:34;2.40;99.90
26278;DHT22;14000;52.056;8.510;2024-02-26T04:35:01;2.40;99.90
26278;DHT22;14000;52.056;8.510;2024-02-26T04:37:27;2.40;99.90
26278;DHT22;14000;52.056;8.510;2024-02-26T04:39:58;2.40;99.90
26278;DHT22;14000;52.056;8.510;2024-02-26T04:42:23;2.40;99.90
26278;DHT22;14000;52.056;8.510;2024-02-26T04:44:49;2.30;99.90
26278;DHT22;14000;52.056;8.510;2024-02-26T04:47:14;2.30;99.90
26278;DHT22;14000;52.056;8.510;2024-02-26T04:49:40;2.30;99.90
26278;DHT22;14000;52.056;8.510;2024-02-26T04:52:06;2.40;99.90
26278;DHT22;14000;52.056;8.510;2024-02-26T04:54:32;2.40;99.90
26278;DHT22;14000;52.056;8.510;2024-02-26T04:56:57;2.50;99.90
26278;DHT22;14000;52.056;8.510;2024-02-26T04:59:23;2.50;99.90
26278;DHT22;14000;52.056;8.510;2024-02-26T05:01:48;2.50;99.90
26278;DHT22;14000;52.056;8.510;2024-02-26T05:04:14;2.50;99.90
26278;DHT22;14000;52.056;8.510;2024-02-26T05:06:39;2.50;99.90
26278;DHT22;14000;52.056;8.510;2024-02-26T05:09:05;2.60;99.90
26278;DHT22;14000;52.056;8.510;2024-02-26T05:11:31;2.60;99.90
26278;DHT22;14000;52.056;8.510;2024-02-26T05:13:57;2.60;99.90
26278;DHT22;14000;52.056;8.510;2024-02-26T05:16:22;2.60;99.90
26278;DHT22;14000;52.056;8.510;2024-02-26T05:18:50;2.70;99.90
26278;DHT22;14000;52.056;8.510;2024-02-26T05:21:15;2.80;99.90
26278;DHT22;14000;52.056;8.510;2024-02-26T05:23:41;2.80;99.90
26278;DHT22;14000;52.056;8.510;2024-02-26T05:26:09;2.80;99.90
26278;DHT22;14000;52.056;8.510;2024-02-26T05:28:35;2.80;99.90
26278;DHT22;14000;52.056;8.510;2024-02-26T05:31:01;2.80;99.90
26278;DHT22;14000;52.056;8.510;2024-02-26T05:33:26;2.80;99.90
26278;DHT22;14000;52.056;8.510;2024-02-26T05:35:52;2.90;99.90
26278;DHT22;14000;52.056;8.510;2024-02-26T05:38:18;2.90;99.90
26278;DHT22;14000;52.056;8.510;2024-02-26T05:40:43;3.00;99.90
26278;DHT22;14000;52.056;8.510;2024-02-26T05:43:09;3.00;99.90
26278;DHT22;14000;52.056;8.510;2024-02-26T05:45:35;3.10;99.90
26278;DHT22;14000;52.056;8.510;2024-02-26T05:48:00;3.10;99.90
26278;DHT22;14000;52.056;8.510;2024-02-26T05:50:26;3.10;99.90
26278;DHT22;14000;52.056;8.510;2024-02-26T05:52:51;3.10;99.90
26278;DHT22;14000;52.056;8.510;2024-02-26T05:55:17;3.10;99.90
26278;DHT22;14000;52.056;8.510;2024-02-26T05:57:43;3.10;99.90
26278;DHT22;14000;52.056;8.510;2024-02-26T06:00:09;3.10;99.90
26278;DHT22;14000;52.056;8.510;2024-02-26T06:02:35;3.10;99.90
26278;DHT22;14000;52.056;8.510;2024-02-26T06:05:00;3.20;99.90
26278;DHT22;14000;52.056;8.510;2024-02-26T06:07:26;3.20;99.90
26278;DHT22;14000;52.056;8.510;2024-02-26T06:09:51;3.20;99.90
26278;DHT22;14000;52.056;8.510;2024-02-26T06:12:17;3.20;99.90
26278;DHT22;14000;52.056;8.510;2024-02-26T06:14:43;3.20;99.90
26278;DHT22;14000;52.056;8.510;2024-02-26T06:17:09;3.30;99.90
26278;DHT22;14000;52.056;8.510;2024-02-26T06:19:34;3.40;99.90
26278;DHT22;14000;52.056;8.510;2024-02-26T06:22:00;3.30;99.90
26278;DHT22;14000;52.056;8.510;2024-02-26T06:24:25;3.30;99.90
26278;DHT22;14000;52.056;8.510;2024-02-26T06:26:51;3.40;99.90
26278;DHT22;14000;52.056;8.510;2024-02-26T06:29:16;3.40;99.90
26278;DHT22;14000;52.056;8.510;2024-02-26T06:31:42;3.50;99.90
26278;DHT22;14000;52.056;8.510;2024-02-26T06:34:08;3.50;99.90
26278;DHT22;14000;52.056;8.510;2024-02-26T06:36:34;3.50;99.90
26278;DHT22;14000;52.056;8.510;2024-02-26T06:39:00;3.60;99.90
26278;DHT22;14000;52.056;8.510;2024-02-26T06:41:25;3.60;99.90
26278;DHT22;14000;52.056;8.510;2024-02-26T06:43:54;3.60;99.90
26278;DHT22;14000;52.056;8.510;2024-02-26T06:46:19;3.70;99.90
26278;DHT22;14000;52.056;8.510;2024-02-26T06:48:47;3.70;99.90
26278;DHT22;14000;52.056;8.510;2024-02-26T06:51:13;3.70;99.90
26278;DHT22;14000;52.056;8.510;2024-02-26T06:53:39;3.80;99.90
26278;DHT22;14000;52.056;8.510;2024-02-26T06:56:05;3.80;99.90
26278;DHT22;14000;52.056;8.510;2024-02-26T06:58:30;3.80;99.90
26278;DHT22;14000;52.056;8.510;2024-02-26T07:00:56;3.80;99.90
26278;DHT22;14000;52.056;8.510;2024-02-26T07:03:21;3.80;99.90
26278;DHT22;14000;52.056;8.510;2024-02-26T07:05:48;3.80;99.90
26278;DHT22;14000;52.056;8.510;2024-02-26T07:08:13;3.80;99.90
26278;DHT22;14000;52.056;8.510;2024-02-26T07:10:39;3.90;99.90
26278;DHT22;14000;52.056;8.510;2024-02-26T07:13:05;3.90;99.90
26278;DHT22;14000;52.056;8.510;2024-02-26T07:15:30;3.90;99.90
26278;DHT22;14000;52.056;8.510;2024-02-26T07:17:56;4.00;99.90
26278;DHT22;14000;52.056;8.510;2024-02-26T07:20:21;4.00;99.90
26278;DHT22;14000;52.056;8.510;2024-02-26T07:22:47;4.10;99.90
26278;DHT22;14000;52.056;8.510;2024-02-26T07:25:12;4.10;99.90
26278;DHT22;14000;52.056;8.510;2024-02-26T07:27:39;4.10;99.90
26278;DHT22;14000;52.056;8.510;2024-02-26T07:30:06;4.20;99.90
26278;DHT22;14000;52.056;8.510;2024-02-26T07:32:33;4.20;99.90
26278;DHT22;14000;52.056;8.510;2024-02-26T07:34:58;4.30;99.90
26278;DHT22;14000;52.056;8.510;2024-02-26T07:37:24;4.30;99.90
26278;DHT22;14000;52.056;8.510;2024-02-26T07:39:50;4.30;99.90
26278;DHT22;14000;52.056;8.510;2024-02-26T07:42:15;4.40;99.90
26278;DHT22;14000;52.056;8.510;2024-02-26T07:44:41;4.40;99.90
26278;DHT22;14000;52.056;8.510;2024-02-26T07:47:09;4.50;99.90
26278;DHT22;14000;52.056;8.510;2024-02-26T07:49:34;4.50;99.90
26278;DHT22;14000;52.056;8.510;2024-02-26T07:52:00;4.60;99.90
26278;DHT22;14000;52.056;8.510;2024-02-26T07:54:25;4.60;99.90
26278;DHT22;14000;52.056;8.510;2024-02-26T07:56:51;4.70;99.90
26278;DHT22;14000;52.056;8.510;2024-02-26T07:59:17;4.70;99.90
26278;DHT22;14000;52.056;8.510;2024-02-26T08:01:42;4.70;99.90
26278;DHT22;14000;52.056;8.510;2024-02-26T08:04:08;4.70;99.90
26278;DHT22;14000;52.056;8.510;2024-02-26T08:06:34;4.70;99.90
26278;DHT22;14000;52.056;8.510;2024-02-26T08:08:59;4.80;99.90
26278;DHT22;14000;52.056;8.510;2024-02-26T08:11:25;4.80;99.90
26278;DHT22;14000;52.056;8.510;2024-02-26T08:13:50;4.80;99.90
26278;DHT22;14000;52.056;8.510;2024-02-26T08:16:16;4.80;99.90
26278;DHT22;14000;52.056;8.510;2024-02-26T08:18:42;4.90;99.90
26278;DHT22;14000;52.056;8.510;2024-02-26T08:21:08;4.80;99.90
26278;DHT22;14000;52.056;8.510;2024-02-26T08:23:34;4.90;99.90
26278;DHT22;14000;52.056;8.510;2024-02-26T08:25:59;5.00;99.90
26278;DHT22;14000;52.056;8.510;2024-02-26T08:28:25;5.10;99.90
26278;DHT22;14000;52.056;8.510;2024-02-26T08:30:50;5.00;99.90
26278;DHT22;14000;52.056;8.510;2024-02-26T08:33:16;5.10;99.90
26278;DHT22;14000;52.056;8.510;2024-02-26T08:35:41;5.10;99.90
26278;DHT22;14000;52.056;8.510;2024-02-26T08:38:07;5.20;99.90
26278;DHT22;14000;52.056;8.510;2024-02-26T08:40:32;5.20;99.90
26278;DHT22;14000;52.056;8.510;2024-02-26T08:42:58;5.30;99.90
26278;DHT22;14000;52.056;8.510;2024-02-26T08:45:23;5.40;99.90
26278;DHT22;14000;52.056;8.510;2024-02-26T08:47:49;5.40;99.90
26278;DHT22;14000;52.056;8.510;2024-02-26T08:50:15;5.40;99.90
26278;DHT22;14000;52.056;8.510;2024-02-26T08:52:41;5.40;99.90
26278;DHT22;14000;52.056;8.510;2024-02-26T08:55:06;5.40;99.90
26278;DHT22;14000;52.056;8.510;2024-02-26T08:57:34;5.40;99.90
26278;DHT22;14000;52.056;8.510;2024-02-26T09:00:01;5.50;99.90
26278;DHT22;14000;52.056;8.510;2024-02-26T09:02:26;5.50;99.90
26278;DHT22;14000;52.056;8.510;2024-02-26T09:04:52;5.60;99.90
26278;DHT22;14000;52.056;8.510;2024-02-26T09:07:20;5.60;99.90
26278;DHT22;14000;52.056;8.510;2024-02-26T09:09:46;5.60;99.90
26278;DHT22;14000;52.056;8.510;2024-02-26T09:12:11;5.60;99.90
26278;DHT22;14000;52.056;8.510;2024-02-26T09:14:37;5.60;99.90
26278;DHT22;14000;52.056;8.510;2024-02-26T09:17:03;5.60;99.90
26278;DHT22;14000;52.056;8.510;2024-02-26T09:19:29;5.60;99.90
26278;DHT22;14000;52.056;8.510;2024-02-26T09:21:54;5.70;99.90
26278;DHT22;14000;52.056;8.510;2024-02-26T09:24:24;5.70;99.90
26278;DHT22;14000;52.056;8.510;2024-02-26T09:26:50;5.70;99.90
26278;DHT22;14000;52.056;8.510;2024-02-26T09:29:16;5.70;99.90
26278;DHT22;14000;52.056;8.510;2024-02-26T09:31:42;5.80;99.90
26278;DHT22;14000;52.056;8.510;2024-02-26T09:34:07;5.80;99.90
26278;DHT22;14000;52.056;8.510;2024-02-26T09:36:36;5.80;99.90
26278;DHT22;14000;52.056;8.510;2024-02-26T09:39:01;5.90;99.90
26278;DHT22;14000;52.056;8.510;2024-02-26T09:41:28;6.00;99.90
26278;DHT22;14000;52.056;8.510;2024-02-26T09:43:58;6.00;99.90
26278;DHT22;14000;52.056;8.510;2024-02-26T09:46:25;6.00;99.90
26278;DHT22;14000;52.056;8.510;2024-02-26T09:48:51;6.00;99.90
26278;DHT22;14000;52.056;8.510;2024-02-26T09:51:17;6.10;99.90
26278;DHT22;14000;52.056;8.510;2024-02-26T09:53:44;6.10;99.90
26278;DHT22;14000;52.056;8.510;2024-02-26T09:56:11;6.20;99.90
26278;DHT22;14000;52.056;8.510;2024-02-26T09:58:39;6.20;99.90
26278;DHT22;14000;52.056;8.510;2024-02-26T10:01:11;6.30;99.90
26278;DHT22;14000;52.056;8.510;2024-02-26T10:03:41;6.40;99.90
26278;DHT22;14000;52.056;8.510;2024-02-26T10:06:08;6.40;99.90
26278;DHT22;14000;52.056;8.510;2024-02-26T10:08:35;6.50;99.90
26278;DHT22;14000;52.056;8.510;2024-02-26T10:11:01;6.50;99.90
26278;DHT22;14000;52.056;8.510;2024-02-26T10:13:26;6.50;99.90
26278;DHT22;14000;52.056;8.510;2024-02-26T10:15:52;6.60;99.90
26278;DHT22;14000;52.056;8.510;2024-02-26T10:18:18;6.60;99.90
26278;DHT22;14000;52.056;8.510;2024-02-26T10:20:59;6.70;99.90
26278;DHT22;14000;52.056;8.510;2024-02-26T10:23:26;6.80;99.90
26278;DHT22;14000;52.056;8.510;2024-02-26T10:25:55;6.80;99.90
26278;DHT22;14000;52.056;8.510;2024-02-26T10:28:22;6.80;99.90
26278;DHT22;14000;52.056;8.510;2024-02-26T10:30:47;6.80;99.90
26278;DHT22;14000;52.056;8.510;2024-02-26T10:33:13;6.70;99.90
26278;DHT22;14000;52.056;8.510;2024-02-26T10:35:40;6.60;99.90
26278;DHT22;14000;52.056;8.510;2024-02-26T10:38:10;6.60;99.90
26278;DHT22;14000;52.056;8.510;2024-02-26T10:40:35;6.80;99.90
26278;DHT22;14000;52.056;8.510;2024-02-26T10:43:02;6.90;99.90
26278;DHT22;14000;52.056;8.510;2024-02-26T10:45:27;6.90;99.90
26278;DHT22;14000;52.056;8.510;2024-02-26T10:47:53;6.90;99.90
26278;DHT22;14000;52.056;8.510;2024-02-26T10:50:19;7.00;99.90
26278;DHT22;14000;52.056;8.510;2024-02-26T10:52:45;7.00;99.90
26278;DHT22;14000;52.056;8.510;2024-02-26T10:55:16;7.00;99.90
26278;DHT22;14000;52.056;8.510;2024-02-26T10:57:44;7.10;99.90
26278;DHT22;14000;52.056;8.510;2024-02-26T11:00:13;7.10;99.90
26278;DHT22;14000;52.056;8.510;2024-02-26T11:02:40;7.10;99.90
26278;DHT22;14000;52.056;8.510;2024-02-26T11:05:06;7.20;99.90
26278;DHT22;14000;52.056;8.510;2024-02-26T11:07:36;7.20;99.90
26278;DHT22;14000;52.056;8.510;2024-02-26T11:10:03;7.30;99.90
26278;DHT22;14000;52.056;8.510;2024-02-26T11:12:31;7.30;99.90
26278;DHT22;14000;52.056;8.510;2024-02-26T11:14:57;7.40;99.90
26278;DHT22;14000;52.056;8.510;2024-02-26T11:17:27;7.30;99.90
26278;DHT22;14000;52.056;8.510;2024-02-26T11:19:56;7.30;99.90
26278;DHT22;14000;52.056;8.510;2024-02-26T11:22:21;7.20;99.90
26278;DHT22;14000;52.056;8.510;2024-02-26T11:24:48;7.20;99.90
26278;DHT22;14000;52.056;8.510;2024-02-26T11:27:16;7.30;99.90
26278;DHT22;14000;52.056;8.510;2024-02-26T11:29:46;7.30;99.90
26278;DHT22;14000;52.056;8.510;2024-02-26T11:32:13;7.30;99.90
26278;DHT22;14000;52.056;8.510;2024-02-26T11:34:40;7.30;99.90
26278;DHT22;14000;52.056;8.510;2024-02-26T11:37:16;7.30;99.90
26278;DHT22;14000;52.056;8.510;2024-02-26T11:39:42;7.30;99.90
26278;DHT22;14000;52.056;8.510;2024-02-26T11:42:13;7.40;99.90
26278;DHT22;14000;52.056;8.510;2024-02-26T11:44:38;7.50;99.90
26278;DHT22;14000;52.056;8.510;2024-02-26T11:47:11;7.50;99.90
26278;DHT22;14000;52.056;8.510;2024-02-26T11:49:37;7.60;99.90
26278;DHT22;14000;52.056;8.510;2024-02-26T11:52:06;7.60;99.90
26278;DHT22;14000;52.056;8.510;2024-02-26T11:59:46;7.70;99.90
26278;DHT22;14000;52.056;8.510;2024-02-26T12:02:11;7.70;99.90
26278;DHT22;14000;52.056;8.510;2024-02-26T12:04:38;7.60;99.90
26278;DHT22;14000;52.056;8.510;2024-02-26T12:07:04;7.60;99.90
26278;DHT22;14000;52.056;8.510;2024-02-26T12:09:48;7.60;99.90
26278;DHT22;14000;52.056;8.510;2024-02-26T12:12:18;7.60;99.90
26278;DHT22;14000;52.056;8.510;2024-02-26T12:14:52;7.60;99.90
26278;DHT22;14000;52.056;8.510;2024-02-26T12:17:22;7.60;99.90
26278;DHT22;14000;52.056;8.510;2024-02-26T12:19:48;7.60;99.90
26278;DHT22;14000;52.056;8.510;2024-02-26T12:22:14;7.60;99.90
26278;DHT22;14000;52.056;8.510;2024-02-26T12:24:41;7.60;99.90
26278;DHT22;14000;52.056;8.510;2024-02-26T12:27:06;7.60;99.90
26278;DHT22;14000;52.056;8.510;2024-02-26T12:29:32;7.50;99.90
26278;DHT22;14000;52.056;8.510;2024-02-26T12:31:57;7.60;99.90
26278;DHT22;14000;52.056;8.510;2024-02-26T12:34:23;7.60;99.90
26278;DHT22;14000;52.056;8.510;2024-02-26T12:36:49;7.60;99.90
26278;DHT22;14000;52.056;8.510;2024-02-26T12:39:15;7.50;99.90
26278;DHT22;14000;52.056;8.510;2024-02-26T12:41:40;7.50;99.90
26278;DHT22;14000;52.056;8.510;2024-02-26T12:44:08;7.50;99.90
26278;DHT22;14000;52.056;8.510;2024-02-26T12:46:33;7.50;99.90
26278;DHT22;14000;52.056;8.510;2024-02-26T12:48:59;7.50;99.90
26278;DHT22;14000;52.056;8.510;2024-02-26T12:51:26;7.50;99.90
26278;DHT22;14000;52.056;8.510;2024-02-26T12:53:52;7.60;99.90
26278;DHT22;14000;52.056;8.510;2024-02-26T12:56:18;7.50;99.90
26278;DHT22;14000;52.056;8.510;2024-02-26T12:58:45;7.50;99.90
26278;DHT22;14000;52.056;8.510;2024-02-26T13:01:15;7.50;99.90
26278;DHT22;14000;52.056;8.510;2024-02-26T13:03:41;7.50;99.90
26278;DHT22;14000;52.056;8.510;2024-02-26T13:06:08;7.40;99.90
26278;DHT22;14000;52.056;8.510;2024-02-26T13:08:34;7.40;99.90
26278;DHT22;14000;52.056;8.510;2024-02-26T13:11:00;7.40;99.90
26278;DHT22;14000;52.056;8.510;2024-02-26T13:13:26;7.40;99.90
26278;DHT22;14000;52.056;8.510;2024-02-26T13:16:02;7.50;99.90
26278;DHT22;14000;52.056;8.510;2024-02-26T13:18:28;7.60;99.90
26278;DHT22;14000;52.056;8.510;2024-02-26T13:23:35;7.60;99.90
26278;DHT22;14000;52.056;8.510;2024-02-26T13:26:00;7.50;99.90
26278;DHT22;14000;52.056;8.510;2024-02-26T13:28:26;7.40;99.90
26278;DHT22;14000;52.056;8.510;2024-02-26T13:30:57;7.30;99.90
26278;DHT22;14000;52.056;8.510;2024-02-26T13:33:24;7.40;99.90
26278;DHT22;14000;52.056;8.510;2024-02-26T13:35:50;7.40;99.90
26278;DHT22;14000;52.056;8.510;2024-02-26T13:38:15;7.40;99.90
26278;DHT22;14000;52.056;8.510;2024-02-26T13:40:41;7.40;99.90
26278;DHT22;14000;52.056;8.510;2024-02-26T13:43:06;7.40;99.90
26278;DHT22;14000;52.056;8.510;2024-02-26T13:45:37;7.40;99.90
26278;DHT22;14000;52.056;8.510;2024-02-26T13:48:05;7.40;99.90
26278;DHT22;14000;52.056;8.510;2024-02-26T13:50:31;7.30;99.90
26278;DHT22;14000;52.056;8.510;2024-02-26T13:52:57;7.30;99.90
26278;DHT22;14000;52.056;8.510;2024-02-26T13:55:25;7.30;99.90
26278;DHT22;14000;52.056;8.510;2024-02-26T13:57:52;7.30;99.90
26278;DHT22;14000;52.056;8.510;2024-02-26T14:00:19;7.20;99.90
26278;DHT22;14000;52.056;8.510;2024-02-26T14:02:45;7.30;99.90
26278;DHT22;14000;52.056;8.510;2024-02-26T14:05:11;7.30;99.90
26278;DHT22;14000;52.056;8.510;2024-02-26T14:07:36;7.30;99.90
26278;DHT22;14000;52.056;8.510;2024-02-26T14:10:03;7.30;99.90
26278;DHT22;14000;52.056;8.510;2024-02-26T14:12:28;7.30;99.90
26278;DHT22;14000;52.056;8.510;2024-02-26T14:14:54;7.30;99.90
26278;DHT22;14000;52.056;8.510;2024-02-26T14:17:21;7.30;99.90
26278;DHT22;14000;52.056;8.510;2024-02-26T14:19:47;7.30;99.90
26278;DHT22;14000;52.056;8.510;2024-02-26T14:22:14;7.30;99.90
26278;DHT22;14000;52.056;8.510;2024-02-26T14:24:41;7.30;99.90
26278;DHT22;14000;52.056;8.510;2024-02-26T14:27:11;7.30;99.90
26278;DHT22;14000;52.056;8.510;2024-02-26T14:29:41;7.40;99.90
26278;DHT22;14000;52.056;8.510;2024-02-26T14:32:09;7.40;99.90
26278;DHT22;14000;52.056;8.510;2024-02-26T14:34:35;7.40;99.90
26278;DHT22;14000;52.056;8.510;2024-02-26T14:37:00;7.40;99.90
26278;DHT22;14000;52.056;8.510;2024-02-26T14:39:26;7.50;99.90
26278;DHT22;14000;52.056;8.510;2024-02-26T14:41:51;7.50;99.90
26278;DHT22;14000;52.056;8.510;2024-02-26T14:44:17;7.50;99.90
26278;DHT22;14000;52.056;8.510;2024-02-26T14:46:43;7.60;99.90
26278;DHT22;14000;52.056;8.510;2024-02-26T14:49:08;7.60;99.90
26278;DHT22;14000;52.056;8.510;2024-02-26T14:51:34;7.60;99.90
26278;DHT22;14000;52.056;8.510;2024-02-26T14:54:00;7.60;99.90
26278;DHT22;14000;52.056;8.510;2024-02-26T14:56:27;7.60;99.90
26278;DHT22;14000;52.056;8.510;2024-02-26T14:58:53;7.50;99.90
26278;DHT22;14000;52.056;8.510;2024-02-26T15:01:18;7.60;99.90
26278;DHT22;14000;52.056;8.510;2024-02-26T15:03:44;7.50;99.90
26278;DHT22;14000;52.056;8.510;2024-02-26T15:06:09;7.50;99.90
26278;DHT22;14000;52.056;8.510;2024-02-26T15:08:35;7.50;99.90
26278;DHT22;14000;52.056;8.510;2024-02-26T15:11:01;7.50;99.90
26278;DHT22;14000;52.056;8.510;2024-02-26T15:13:26;7.50;99.90
26278;DHT22;14000;52.056;8.510;2024-02-26T15:15:52;7.60;99.90
26278;DHT22;14000;52.056;8.510;2024-02-26T15:18:18;7.60;99.90
26278;DHT22;14000;52.056;8.510;2024-02-26T15:20:44;7.70;99.90
26278;DHT22;14000;52.056;8.510;2024-02-26T15:23:09;7.70;99.90
26278;DHT22;14000;52.056;8.510;2024-02-26T15:25:35;7.70;99.90
26278;DHT22;14000;52.056;8.510;2024-02-26T15:28:01;7.70;99.90
26278;DHT22;14000;52.056;8.510;2024-02-26T15:30:27;7.80;99.90
26278;DHT22;14000;52.056;8.510;2024-02-26T15:32:56;7.80;99.90
26278;DHT22;14000;52.056;8.510;2024-02-26T15:35:22;7.70;99.90
26278;DHT22;14000;52.056;8.510;2024-02-26T15:37:47;7.70;99.90
26278;DHT22;14000;52.056;8.510;2024-02-26T15:40:13;7.70;99.90
26278;DHT22;14000;52.056;8.510;2024-02-26T15:42:38;7.70;99.90
26278;DHT22;14000;52.056;8.510;2024-02-26T15:45:05;7.70;99.90
26278;DHT22;14000;52.056;8.510;2024-02-26T15:47:31;7.70;99.90